sensor_id;sensor_type;location;lat;lon;timestamp;pressure;altitude;pressure_sealevel;temperature;humidity
8637;BME280;4356;49.068;8.658;2023-01-31T00:02:01;100845.75;;;13.82;37.24
8637;BME280;4356;49.068;8.658;2023-01-31T00:04:27;100850.81;;;13.85;37.42
8637;BME280;4356;49.068;8.658;2023-01-31T00:06:52;100855.69;;;13.90;37.67
8637;BME280;4356;49.068;8.658;2023-01-31T00:09:18;100866.69;;;13.96;37.59
8637;BME280;4356;49.068;8.658;2023-01-31T00:11:44;100875.81;;;13.95;37.84
8637;BME280;4356;49.068;8.658;2023-01-31T00:14:16;100829.88;;;13.71;37.48
8637;BME280;4356;49.068;8.658;2023-01-31T00:16:42;100851.31;;;13.81;37.46
8637;BME280;4356;49.068;8.658;2023-01-31T00:19:08;100876.16;;;13.92;37.69
8637;BME280;4356;49.068;8.658;2023-01-31T00:21:33;100870.06;;;13.90;37.55
8637;BME280;4356;49.068;8.658;2023-01-31T00:23:59;100865.69;;;13.89;37.35
8637;BME280;4356;49.068;8.658;2023-01-31T00:26:28;100853.00;;;13.82;37.74
8637;BME280;4356;49.068;8.658;2023-01-31T00:28:55;100856.03;;;13.79;37.77
8637;BME280;4356;49.068;8.658;2023-01-31T00:31:23;100879.19;;;13.89;37.70
8637;BME280;4356;49.068;8.658;2023-01-31T00:33:50;100877.50;;;13.88;37.92
8637;BME280;4356;49.068;8.658;2023-01-31T00:36:22;100876.81;;;13.86;37.81
8637;BME280;4356;49.068;8.658;2023-01-31T00:38:50;100877.00;;;13.85;37.52
8637;BME280;4356;49.068;8.658;2023-01-31T00:41:19;100879.00;;;13.83;37.75
8637;BME280;4356;49.068;8.658;2023-01-31T00:43:45;100869.72;;;13.85;37.48
8637;BME280;4356;49.068;8.658;2023-01-31T00:46:10;100859.59;;;13.79;37.48
8637;BME280;4356;49.068;8.658;2023-01-31T00:48:36;100867.38;;;13.82;37.40
8637;BME280;4356;49.068;8.658;2023-01-31T00:51:02;100863.47;;;13.85;37.73
8637;BME280;4356;49.068;8.658;2023-01-31T00:53:28;100861.97;;;13.82;37.77
8637;BME280;4356;49.068;8.658;2023-01-31T00:56:06;100857.22;;;13.84;37.46
8637;BME280;4356;49.068;8.658;2023-01-31T00:58:32;100860.78;;;13.85;37.81
8637;BME280;4356;49.068;8.658;2023-01-31T01:03:35;100870.91;;;13.83;37.77
8637;BME280;4356;49.068;8.658;2023-01-31T01:06:01;100849.31;;;13.75;37.96
8637;BME280;4356;49.068;8.658;2023-01-31T01:08:28;100866.69;;;13.80;37.92
8637;BME280;4356;49.068;8.658;2023-01-31T01:10:54;100857.56;;;13.81;37.69
8637;BME280;4356;49.068;8.658;2023-01-31T01:13:20;100855.22;;;13.78;37.75
8637;BME280;4356;49.068;8.658;2023-01-31T01:15:46;100856.88;;;13.79;37.34
8637;BME280;4356;49.068;8.658;2023-01-31T01:18:11;100855.53;;;13.75;37.18
8637;BME280;4356;49.068;8.658;2023-01-31T01:20:37;100859.75;;;13.78;37.25
8637;BME280;4356;49.068;8.658;2023-01-31T01:23:03;100865.66;;;13.81;37.70
8637;BME280;4356;49.068;8.658;2023-01-31T01:25:29;100865.00;;;13.79;37.59
8637;BME280;4356;49.068;8.658;2023-01-31T01:27:55;100873.09;;;13.79;37.35
8637;BME280;4356;49.068;8.658;2023-01-31T01:30:21;100873.09;;;13.79;37.41
8637;BME280;4356;49.068;8.658;2023-01-31T01:32:47;100864.31;;;13.77;37.83
8637;BME280;4356;49.068;8.658;2023-01-31T01:35:13;100866.19;;;13.77;37.40
8637;BME280;4356;49.068;8.658;2023-01-31T01:37:38;100879.53;;;13.78;37.68
8637;BME280;4356;49.068;8.658;2023-01-31T01:40:04;100867.53;;;13.73;37.49
8637;BME280;4356;49.068;8.658;2023-01-31T01:42:34;100882.22;;;13.78;38.12
8637;BME280;4356;49.068;8.658;2023-01-31T01:45:01;100876.81;;;13.78;37.90
8637;BME280;4356;49.068;8.658;2023-01-31T01:47:34;100876.50;;;13.73;37.50
8637;BME280;4356;49.068;8.658;2023-01-31T01:52:38;100881.38;;;13.78;37.57
8637;BME280;4356;49.068;8.658;2023-01-31T01:55:21;100877.31;;;13.74;37.36
8637;BME280;4356;49.068;8.658;2023-01-31T01:57:51;100887.28;;;13.73;37.74
8637;BME280;4356;49.068;8.658;2023-01-31T02:00:23;100888.81;;;13.76;37.27
8637;BME280;4356;49.068;8.658;2023-01-31T02:02:52;100889.66;;;13.76;37.15
8637;BME280;4356;49.068;8.658;2023-01-31T02:05:25;100894.19;;;13.76;37.32
8637;BME280;4356;49.068;8.658;2023-01-31T02:07:53;100891.84;;;13.73;37.40
8637;BME280;4356;49.068;8.658;2023-01-31T02:10:29;100897.94;;;13.75;37.53
8637;BME280;4356;49.068;8.658;2023-01-31T02:12:56;100887.59;;;13.70;37.78
8637;BME280;4356;49.068;8.658;2023-01-31T02:15:22;100902.66;;;13.73;37.81
8637;BME280;4356;49.068;8.658;2023-01-31T02:17:49;100907.19;;;13.72;37.69
8637;BME280;4356;49.068;8.658;2023-01-31T02:23:05;100891.50;;;13.68;37.82
8637;BME280;4356;49.068;8.658;2023-01-31T02:29:22;100909.91;;;13.72;37.67
8637;BME280;4356;49.068;8.658;2023-01-31T02:41:55;100898.75;;;13.67;37.46
8637;BME280;4356;49.068;8.658;2023-01-31T02:44:40;100906.69;;;13.69;37.84
8637;BME280;4356;49.068;8.658;2023-01-31T02:47:41;100909.41;;;13.69;37.32
8637;BME280;4356;49.068;8.658;2023-01-31T02:53:15;100905.31;;;13.65;37.52
8637;BME280;4356;49.068;8.658;2023-01-31T02:58:38;100903.47;;;13.65;37.65
8637;BME280;4356;49.068;8.658;2023-01-31T03:01:05;100903.47;;;13.65;38.11
8637;BME280;4356;49.068;8.658;2023-01-31T03:03:34;100892.34;;;13.60;37.91
8637;BME280;4356;49.068;8.658;2023-01-31T03:08:39;100886.72;;;13.54;37.65
8637;BME280;4356;49.068;8.658;2023-01-31T03:11:07;100897.56;;;13.62;37.78
8637;BME280;4356;49.068;8.658;2023-01-31T03:13:37;100899.25;;;13.63;37.81
8637;BME280;4356;49.068;8.658;2023-01-31T03:16:35;100891.31;;;13.61;37.76
8637;BME280;4356;49.068;8.658;2023-01-31T03:19:30;100893.16;;;13.61;37.65
8637;BME280;4356;49.068;8.658;2023-01-31T03:22:08;100889.31;;;13.55;37.83
8637;BME280;4356;49.068;8.658;2023-01-31T03:24:36;100897.91;;;13.59;37.47
8637;BME280;4356;49.068;8.658;2023-01-31T03:27:03;100897.91;;;13.59;37.31
8637;BME280;4356;49.068;8.658;2023-01-31T03:29:31;100906.00;;;13.59;37.81
8637;BME280;4356;49.068;8.658;2023-01-31T03:32:03;100898.03;;;13.57;37.53
8637;BME280;4356;49.068;8.658;2023-01-31T03:34:31;100908.03;;;13.57;37.79
8637;BME280;4356;49.068;8.658;2023-01-31T03:40:29;100919.00;;;13.55;37.51
8637;BME280;4356;49.068;8.658;2023-01-31T03:45:38;100914.09;;;13.51;37.71
8637;BME280;4356;49.068;8.658;2023-01-31T03:48:07;100910.53;;;13.50;38.17
8637;BME280;4356;49.068;8.658;2023-01-31T03:50:43;100915.44;;;13.55;37.56
8637;BME280;4356;49.068;8.658;2023-01-31T03:53:16;100926.09;;;13.56;37.90
8637;BME280;4356;49.068;8.658;2023-01-31T03:55:49;100898.00;;;13.41;37.95
8637;BME280;4356;49.068;8.658;2023-01-31T03:58:18;100930.81;;;13.54;37.72
8637;BME280;4356;49.068;8.658;2023-01-31T04:00:46;100936.19;;;13.54;37.99
8637;BME280;4356;49.068;8.658;2023-01-31T04:03:19;100937.22;;;13.53;37.32
8637;BME280;4356;49.068;8.658;2023-01-31T04:05:48;100927.75;;;13.49;37.99
8637;BME280;4356;49.068;8.658;2023-01-31T04:08:15;100917.59;;;13.43;37.77
8637;BME280;4356;49.068;8.658;2023-01-31T04:10:41;100932.66;;;13.54;37.84
8637;BME280;4356;49.068;8.658;2023-01-31T04:13:07;100921.00;;;13.45;37.64
8637;BME280;4356;49.068;8.658;2023-01-31T04:15:32;100927.59;;;13.51;37.69
8637;BME280;4356;49.068;8.658;2023-01-31T04:17:58;100908.31;;;13.37;37.63
8637;BME280;4356;49.068;8.658;2023-01-31T04:20:24;100940.75;;;13.54;37.36
8637;BME280;4356;49.068;8.658;2023-01-31T04:22:50;100932.13;;;13.50;37.98
8637;BME280;4356;49.068;8.658;2023-01-31T04:25:15;100924.03;;;13.42;37.53
8637;BME280;4356;49.068;8.658;2023-01-31T04:27:42;100931.13;;;13.51;37.83
8637;BME280;4356;49.068;8.658;2023-01-31T04:30:08;100924.19;;;13.49;37.56
8637;BME280;4356;49.068;8.658;2023-01-31T04:32:34;100931.31;;;13.50;37.79
8637;BME280;4356;49.068;8.658;2023-01-31T04:34:59;100923.72;;;13.53;37.25
8637;BME280;4356;49.068;8.658;2023-01-31T04:37:25;100910.34;;;13.43;37.59
8637;BME280;4356;49.068;8.658;2023-01-31T04:39:51;100925.75;;;13.51;37.84
8637;BME280;4356;49.068;8.658;2023-01-31T04:42:16;100916.97;;;13.49;37.62
8637;BME280;4356;49.068;8.658;2023-01-31T04:44:42;100907.66;;;13.43;37.62
8637;BME280;4356;49.068;8.658;2023-01-31T04:47:08;100930.63;;;13.56;37.62
8637;BME280;4356;49.068;8.658;2023-01-31T04:49:33;100927.94;;;13.56;37.38
8637;BME280;4356;49.068;8.658;2023-01-31T04:51:59;100906.16;;;13.49;37.39
8637;BME280;4356;49.068;8.658;2023-01-31T04:54:25;100925.41;;;13.54;37.86
8637;BME280;4356;49.068;8.658;2023-01-31T04:56:50;100904.97;;;13.43;37.64
8637;BME280;4356;49.068;8.658;2023-01-31T04:59:16;100926.09;;;13.56;37.69
8637;BME280;4356;49.068;8.658;2023-01-31T05:01:42;100914.25;;;13.49;37.53
8637;BME280;4356;49.068;8.658;2023-01-31T05:04:08;100920.00;;;13.54;37.67
8637;BME280;4356;49.068;8.658;2023-01-31T05:06:33;100920.69;;;13.56;37.95
8637;BME280;4356;49.068;8.658;2023-01-31T05:08:59;100909.38;;;13.53;37.33
8637;BME280;4356;49.068;8.658;2023-01-31T05:11:26;100903.63;;;13.48;37.65
8637;BME280;4356;49.068;8.658;2023-01-31T05:13:52;100901.59;;;13.50;37.90
8637;BME280;4356;49.068;8.658;2023-01-31T05:16:18;100911.91;;;13.54;37.26
8637;BME280;4356;49.068;8.658;2023-01-31T05:18:44;100898.22;;;13.48;38.04
8637;BME280;4356;49.068;8.658;2023-01-31T05:21:10;100912.41;;;13.58;37.51
8637;BME280;4356;49.068;8.658;2023-01-31T05:23:36;100896.72;;;13.53;37.16
8637;BME280;4356;49.068;8.658;2023-01-31T05:26:02;100909.72;;;13.58;37.97
8637;BME280;4356;49.068;8.658;2023-01-31T05:28:28;100899.41;;;13.53;37.19
8637;BME280;4356;49.068;8.658;2023-01-31T05:31:00;100909.88;;;13.56;37.12
8637;BME280;4356;49.068;8.658;2023-01-31T05:33:26;100887.72;;;13.44;37.59
8637;BME280;4356;49.068;8.658;2023-01-31T05:35:53;100903.44;;;13.57;37.75
8637;BME280;4356;49.068;8.658;2023-01-31T05:38:19;100905.63;;;13.54;37.73
8637;BME280;4356;49.068;8.658;2023-01-31T05:40:45;100911.72;;;13.56;37.23
8637;BME280;4356;49.068;8.658;2023-01-31T05:43:11;100893.31;;;13.43;37.61
8637;BME280;4356;49.068;8.658;2023-01-31T05:45:36;100868.50;;;13.31;37.64
8637;BME280;4356;49.068;8.658;2023-01-31T05:48:03;100896.16;;;13.41;37.33
8637;BME280;4356;49.068;8.658;2023-01-31T05:50:29;100888.72;;;13.35;37.49
8637;BME280;4356;49.068;8.658;2023-01-31T05:52:56;100910.88;;;13.47;37.31
8637;BME280;4356;49.068;8.658;2023-01-31T05:55:28;100907.16;;;13.48;37.41
8637;BME280;4356;49.068;8.658;2023-01-31T05:57:54;100908.84;;;13.49;37.62
8637;BME280;4356;49.068;8.658;2023-01-31T06:00:20;100881.44;;;13.28;37.59
8637;BME280;4356;49.068;8.658;2023-01-31T06:02:46;100918.81;;;13.49;37.85
8637;BME280;4356;49.068;8.658;2023-01-31T06:05:13;100909.00;;;13.39;37.73
8637;BME280;4356;49.068;8.658;2023-01-31T06:07:39;100922.19;;;13.51;37.57
8637;BME280;4356;49.068;8.658;2023-01-31T06:10:06;100934.84;;;13.50;37.77
8637;BME280;4356;49.068;8.658;2023-01-31T06:12:32;100933.50;;;13.54;37.58
8637;BME280;4356;49.068;8.658;2023-01-31T06:14:58;100926.25;;;13.55;37.86
8637;BME280;4356;49.068;8.658;2023-01-31T06:17:24;100938.41;;;13.59;37.20
8637;BME280;4356;49.068;8.658;2023-01-31T06:19:49;100905.13;;;13.50;37.76
8637;BME280;4356;49.068;8.658;2023-01-31T06:22:16;100908.84;;;13.49;37.51
8637;BME280;4356;49.068;8.658;2023-01-31T06:24:42;100919.19;;;13.62;37.69
8637;BME280;4356;49.068;8.658;2023-01-31T06:27:10;100934.22;;;13.72;37.56
8637;BME280;4356;49.068;8.658;2023-01-31T06:29:36;100910.94;;;13.71;37.49
8637;BME280;4356;49.068;8.658;2023-01-31T06:32:02;100937.44;;;13.92;37.09
8637;BME280;4356;49.068;8.658;2023-01-31T06:34:28;100933.91;;;13.99;36.75
8637;BME280;4356;49.068;8.658;2023-01-31T06:36:54;100946.75;;;14.13;37.17
8637;BME280;4356;49.068;8.658;2023-01-31T06:39:20;100942.03;;;14.23;36.85
8637;BME280;4356;49.068;8.658;2023-01-31T06:41:46;100928.03;;;14.28;36.98
8637;BME280;4356;49.068;8.658;2023-01-31T06:44:12;100940.69;;;14.52;36.63
8637;BME280;4356;49.068;8.658;2023-01-31T06:46:38;100938.16;;;14.58;36.33
8637;BME280;4356;49.068;8.658;2023-01-31T06:49:04;100935.09;;;14.69;36.29
8637;BME280;4356;49.068;8.658;2023-01-31T06:51:30;100946.69;;;14.94;36.05
8637;BME280;4356;49.068;8.658;2023-01-31T06:53:55;100952.91;;;15.10;35.95
8637;BME280;4356;49.068;8.658;2023-01-31T06:56:21;100960.47;;;15.23;35.83
8637;BME280;4356;49.068;8.658;2023-01-31T06:58:48;100971.41;;;15.37;35.46
8637;BME280;4356;49.068;8.658;2023-01-31T07:01:14;100962.75;;;15.50;34.98
8637;BME280;4356;49.068;8.658;2023-01-31T07:03:40;100968.38;;;15.71;34.91
8637;BME280;4356;49.068;8.658;2023-01-31T07:06:07;100969.13;;;15.88;34.20
8637;BME280;4356;49.068;8.658;2023-01-31T07:08:34;100977.47;;;16.09;33.92
8637;BME280;4356;49.068;8.658;2023-01-31T07:11:01;100956.38;;;16.19;34.00
8637;BME280;4356;49.068;8.658;2023-01-31T07:13:27;100969.38;;;16.46;33.81
8637;BME280;4356;49.068;8.658;2023-01-31T07:15:54;100944.91;;;16.54;33.40
8637;BME280;4356;49.068;8.658;2023-01-31T07:18:20;100969.84;;;16.87;33.66
8637;BME280;4356;49.068;8.658;2023-01-31T07:20:46;100960.78;;;17.09;33.09
8637;BME280;4356;49.068;8.658;2023-01-31T07:23:14;100961.06;;;17.28;32.94
8637;BME280;4356;49.068;8.658;2023-01-31T07:25:40;100957.13;;;17.45;32.73
8637;BME280;4356;49.068;8.658;2023-01-31T07:28:06;100947.00;;;17.54;32.39
8637;BME280;4356;49.068;8.658;2023-01-31T07:30:32;100963.44;;;17.82;32.27
8637;BME280;4356;49.068;8.658;2023-01-31T07:32:59;100934.19;;;17.84;31.90
8637;BME280;4356;49.068;8.658;2023-01-31T07:35:24;100952.06;;;18.14;31.80
8637;BME280;4356;49.068;8.658;2023-01-31T07:37:51;100964.81;;;18.34;31.73
8637;BME280;4356;49.068;8.658;2023-01-31T07:40:17;100963.69;;;18.43;31.50
8637;BME280;4356;49.068;8.658;2023-01-31T07:42:43;100958.03;;;18.45;31.29
8637;BME280;4356;49.068;8.658;2023-01-31T07:45:11;100963.34;;;18.53;31.22
8637;BME280;4356;49.068;8.658;2023-01-31T07:47:37;100970.91;;;18.58;31.38
8637;BME280;4356;49.068;8.658;2023-01-31T07:50:03;100965.88;;;18.55;31.27
8637;BME280;4356;49.068;8.658;2023-01-31T07:52:30;100962.94;;;18.56;31.29
8637;BME280;4356;49.068;8.658;2023-01-31T07:54:56;100963.81;;;18.57;31.05
8637;BME280;4356;49.068;8.658;2023-01-31T07:57:21;100967.56;;;18.56;31.38
8637;BME280;4356;49.068;8.658;2023-01-31T07:59:47;100960.03;;;18.58;31.05
8637;BME280;4356;49.068;8.658;2023-01-31T08:02:15;100980.78;;;18.59;31.42
8637;BME280;4356;49.068;8.658;2023-01-31T08:04:59;100960.81;;;18.52;31.26
8637;BME280;4356;49.068;8.658;2023-01-31T08:07:26;100968.41;;;18.56;31.00
8637;BME280;4356;49.068;8.658;2023-01-31T08:09:52;100971.69;;;18.52;31.50
8637;BME280;4356;49.068;8.658;2023-01-31T08:12:17;100975.06;;;18.54;31.13
8637;BME280;4356;49.068;8.658;2023-01-31T08:14:43;100962.06;;;18.49;30.89
8637;BME280;4356;49.068;8.658;2023-01-31T08:17:09;100970.22;;;18.49;31.28
8637;BME280;4356;49.068;8.658;2023-01-31T08:19:35;100980.91;;;18.51;31.22
8637;BME280;4356;49.068;8.658;2023-01-31T08:22:02;100981.75;;;18.51;31.15
8637;BME280;4356;49.068;8.658;2023-01-31T08:24:30;100970.16;;;18.42;31.21
8637;BME280;4356;49.068;8.658;2023-01-31T08:26:57;100970.44;;;18.48;31.40
8637;BME280;4356;49.068;8.658;2023-01-31T08:29:23;100969.56;;;18.47;31.05
8637;BME280;4356;49.068;8.658;2023-01-31T08:31:49;100976.31;;;18.51;31.53
8637;BME280;4356;49.068;8.658;2023-01-31T08:34:15;100959.91;;;18.44;31.46
8637;BME280;4356;49.068;8.658;2023-01-31T08:36:41;100967.44;;;18.42;31.24
8637;BME280;4356;49.068;8.658;2023-01-31T08:39:08;100982.41;;;18.53;31.35
8637;BME280;4356;49.068;8.658;2023-01-31T08:41:35;100988.69;;;18.54;31.27
8637;BME280;4356;49.068;8.658;2023-01-31T08:44:02;100987.84;;;18.53;31.42
8637;BME280;4356;49.068;8.658;2023-01-31T08:46:35;100986.41;;;18.57;31.57
8637;BME280;4356;49.068;8.658;2023-01-31T08:49:03;100991.69;;;18.59;31.31
8637;BME280;4356;49.068;8.658;2023-01-31T08:51:30;100978.63;;;18.54;31.25
8637;BME280;4356;49.068;8.658;2023-01-31T08:53:55;100997.75;;;18.61;31.21
8637;BME280;4356;49.068;8.658;2023-01-31T08:56:21;100991.47;;;18.60;31.16
8637;BME280;4356;49.068;8.658;2023-01-31T08:58:51;100982.66;;;18.58;31.33
8637;BME280;4356;49.068;8.658;2023-01-31T09:01:19;100975.13;;;18.60;31.19
8637;BME280;4356;49.068;8.658;2023-01-31T09:03:46;100980.63;;;18.67;31.44
8637;BME280;4356;49.068;8.658;2023-01-31T09:06:20;100960.28;;;18.63;31.35
8637;BME280;4356;49.068;8.658;2023-01-31T09:08:46;100979.19;;;18.71;31.38
8637;BME280;4356;49.068;8.658;2023-01-31T09:11:13;100950.84;;;18.59;31.35
8637;BME280;4356;49.068;8.658;2023-01-31T09:13:44;100976.28;;;18.72;31.27
8637;BME280;4356;49.068;8.658;2023-01-31T09:16:11;100962.22;;;18.69;31.43
8637;BME280;4356;49.068;8.658;2023-01-31T09:18:39;100964.72;;;18.70;31.46
8637;BME280;4356;49.068;8.658;2023-01-31T09:21:16;100966.69;;;18.76;31.03
8637;BME280;4356;49.068;8.658;2023-01-31T09:23:43;100976.53;;;18.77;31.18
8637;BME280;4356;49.068;8.658;2023-01-31T09:26:14;100975.69;;;18.77;31.07
8637;BME280;4356;49.068;8.658;2023-01-31T09:28:40;100961.22;;;18.76;31.10
8637;BME280;4356;49.068;8.658;2023-01-31T09:31:14;100974.88;;;18.83;31.45
8637;BME280;4356;49.068;8.658;2023-01-31T09:33:41;100971.13;;;18.84;31.47
8637;BME280;4356;49.068;8.658;2023-01-31T09:36:09;100950.34;;;18.76;31.31
8637;BME280;4356;49.068;8.658;2023-01-31T09:38:36;100957.31;;;18.85;31.51
8637;BME280;4356;49.068;8.658;2023-01-31T09:43:49;100957.75;;;18.89;31.24
8637;BME280;4356;49.068;8.658;2023-01-31T09:46:18;100947.06;;;18.87;31.28
8637;BME280;4356;49.068;8.658;2023-01-31T09:48:48;100950.66;;;18.88;31.49
8637;BME280;4356;49.068;8.658;2023-01-31T09:51:16;100950.16;;;18.84;31.33
8637;BME280;4356;49.068;8.658;2023-01-31T09:53:43;100973.06;;;18.90;31.36
8637;BME280;4356;49.068;8.658;2023-01-31T09:56:31;100978.94;;;18.93;31.29
8637;BME280;4356;49.068;8.658;2023-01-31T09:59:17;100970.53;;;18.88;30.98
8637;BME280;4356;49.068;8.658;2023-01-31T10:07:02;100965.31;;;18.93;30.98
8637;BME280;4356;49.068;8.658;2023-01-31T10:09:36;100959.09;;;18.99;30.95
8637;BME280;4356;49.068;8.658;2023-01-31T10:12:21;100964.59;;;19.06;31.09
8637;BME280;4356;49.068;8.658;2023-01-31T10:14:57;100961.91;;;19.12;31.31
8637;BME280;4356;49.068;8.658;2023-01-31T10:17:39;100961.28;;;19.17;31.05
8637;BME280;4356;49.068;8.658;2023-01-31T10:20:19;100965.09;;;19.22;31.27
8637;BME280;4356;49.068;8.658;2023-01-31T10:22:53;100941.63;;;19.21;31.03
8637;BME280;4356;49.068;8.658;2023-01-31T10:25:33;100942.09;;;19.31;30.85
8637;BME280;4356;49.068;8.658;2023-01-31T10:28:09;100945.91;;;19.37;30.81
8637;BME280;4356;49.068;8.658;2023-01-31T10:30:43;100955.59;;;19.46;30.77
8637;BME280;4356;49.068;8.658;2023-01-31T10:33:55;100945.97;;;19.50;30.79
8637;BME280;4356;49.068;8.658;2023-01-31T10:36:37;100960.50;;;19.64;30.74
8637;BME280;4356;49.068;8.658;2023-01-31T10:44:43;100964.16;;;19.84;30.20
8637;BME280;4356;49.068;8.658;2023-01-31T10:47:15;100963.09;;;19.91;30.28
8637;BME280;4356;49.068;8.658;2023-01-31T10:49:46;100956.84;;;19.97;30.14
8637;BME280;4356;49.068;8.658;2023-01-31T10:57:46;100936.53;;;20.19;29.91
8637;BME280;4356;49.068;8.658;2023-01-31T11:00:21;100916.63;;;20.25;30.06
8637;BME280;4356;49.068;8.658;2023-01-31T11:02:48;100910.94;;;20.33;29.82
8637;BME280;4356;49.068;8.658;2023-01-31T11:05:18;100902.94;;;20.38;29.47
8637;BME280;4356;49.068;8.658;2023-01-31T11:07:46;100898.75;;;20.42;29.52
8637;BME280;4356;49.068;8.658;2023-01-31T11:10:26;100891.00;;;20.39;29.49
8637;BME280;4356;49.068;8.658;2023-01-31T11:12:55;100896.66;;;20.44;29.71
8637;BME280;4356;49.068;8.658;2023-01-31T11:15:24;100891.19;;;20.44;29.59
8637;BME280;4356;49.068;8.658;2023-01-31T11:17:58;100887.84;;;20.42;29.30
8637;BME280;4356;49.068;8.658;2023-01-31T11:22:53;100892.66;;;20.40;29.71
8637;BME280;4356;49.068;8.658;2023-01-31T11:25:21;100899.59;;;20.43;29.75
8637;BME280;4356;49.068;8.658;2023-01-31T11:27:52;100884.47;;;20.40;29.52
8637;BME280;4356;49.068;8.658;2023-01-31T11:32:55;100882.38;;;20.42;29.80
8637;BME280;4356;49.068;8.658;2023-01-31T11:35:30;100876.91;;;20.42;29.95
8637;BME280;4356;49.068;8.658;2023-01-31T11:38:19;100882.16;;;20.44;29.65
8637;BME280;4356;49.068;8.658;2023-01-31T11:40:46;100893.06;;;20.44;29.82
8637;BME280;4356;49.068;8.658;2023-01-31T11:45:45;100879.63;;;20.42;29.65
8637;BME280;4356;49.068;8.658;2023-01-31T11:48:18;100873.16;;;20.43;30.02
8637;BME280;4356;49.068;8.658;2023-01-31T11:50:49;100849.81;;;20.41;29.81
8637;BME280;4356;49.068;8.658;2023-01-31T11:55:51;100849.59;;;20.42;29.62
8637;BME280;4356;49.068;8.658;2023-01-31T11:58:31;100851.31;;;20.43;29.99
8637;BME280;4356;49.068;8.658;2023-01-31T12:01:07;100833.44;;;20.41;29.92
8637;BME280;4356;49.068;8.658;2023-01-31T12:03:38;100830.50;;;20.42;29.80
8637;BME280;4356;49.068;8.658;2023-01-31T12:06:06;100829.47;;;20.43;29.66
8637;BME280;4356;49.068;8.658;2023-01-31T12:08:38;100823.16;;;20.43;29.96
8637;BME280;4356;49.068;8.658;2023-01-31T12:13:51;100823.78;;;20.45;29.55
8637;BME280;4356;49.068;8.658;2023-01-31T12:16:20;100827.53;;;20.44;29.69
8637;BME280;4356;49.068;8.658;2023-01-31T12:19:05;100833.84;;;20.44;29.97
8637;BME280;4356;49.068;8.658;2023-01-31T12:27:48;100809.25;;;20.51;29.86
8637;BME280;4356;49.068;8.658;2023-01-31T12:36:46;100811.16;;;20.51;29.68
8637;BME280;4356;49.068;8.658;2023-01-31T12:39:30;100808.22;;;20.52;29.92
8637;BME280;4356;49.068;8.658;2023-01-31T12:42:04;100796.22;;;20.53;29.64
8637;BME280;4356;49.068;8.658;2023-01-31T12:44:56;100773.56;;;20.53;29.73
8637;BME280;4356;49.068;8.658;2023-01-31T12:47:47;100761.75;;;20.59;29.84
8637;BME280;4356;49.068;8.658;2023-01-31T12:50:27;100764.28;;;20.60;29.65
8637;BME280;4356;49.068;8.658;2023-01-31T12:56:25;100756.09;;;20.60;29.57
8637;BME280;4356;49.068;8.658;2023-01-31T12:59:08;100735.47;;;20.64;29.76
8637;BME280;4356;49.068;8.658;2023-01-31T13:01:51;100748.72;;;20.67;29.64
8637;BME280;4356;49.068;8.658;2023-01-31T13:04:30;100752.28;;;20.68;29.66
8637;BME280;4356;49.068;8.658;2023-01-31T13:09:49;100741.97;;;20.70;29.66
8637;BME280;4356;49.068;8.658;2023-01-31T13:12:22;100732.75;;;20.71;29.52
8637;BME280;4356;49.068;8.658;2023-01-31T13:15:25;100734.84;;;20.69;29.43
8637;BME280;4356;49.068;8.658;2023-01-31T13:17:56;100748.69;;;20.74;29.54
8637;BME280;4356;49.068;8.658;2023-01-31T13:20:46;100762.13;;;20.75;29.14
8637;BME280;4356;49.068;8.658;2023-01-31T13:23:22;100751.19;;;20.75;29.07
8637;BME280;4356;49.068;8.658;2023-01-31T13:25:56;100746.59;;;20.76;29.52
8637;BME280;4356;49.068;8.658;2023-01-31T13:28:35;100727.69;;;20.74;29.73
8637;BME280;4356;49.068;8.658;2023-01-31T13:31:08;100709.41;;;20.68;29.45
8637;BME280;4356;49.068;8.658;2023-01-31T13:33:46;100701.22;;;20.68;29.63
8637;BME280;4356;49.068;8.658;2023-01-31T13:36:24;100719.09;;;20.71;29.48
8637;BME280;4356;49.068;8.658;2023-01-31T13:38:52;100713.81;;;20.69;29.81
8637;BME280;4356;49.068;8.658;2023-01-31T13:41:28;100714.84;;;20.75;29.63
8637;BME280;4356;49.068;8.658;2023-01-31T13:43:55;100729.34;;;20.75;29.70
8637;BME280;4356;49.068;8.658;2023-01-31T13:46:28;100721.38;;;20.74;29.68
8637;BME280;4356;49.068;8.658;2023-01-31T13:49:08;100701.84;;;20.70;29.37
8637;BME280;4356;49.068;8.658;2023-01-31T13:51:43;100688.81;;;20.66;29.48
8637;BME280;4356;49.068;8.658;2023-01-31T13:54:21;100669.97;;;20.58;29.62
8637;BME280;4356;49.068;8.658;2023-01-31T13:56:53;100677.28;;;20.64;29.51
8637;BME280;4356;49.068;8.658;2023-01-31T13:59:31;100686.31;;;20.64;29.41
8637;BME280;4356;49.068;8.658;2023-01-31T14:02:00;100683.59;;;20.64;29.55
8637;BME280;4356;49.068;8.658;2023-01-31T14:04:34;100673.97;;;20.62;29.42
8637;BME280;4356;49.068;8.658;2023-01-31T14:09:41;100635.09;;;20.60;29.62
8637;BME280;4356;49.068;8.658;2023-01-31T14:14:48;100640.34;;;20.61;29.69
8637;BME280;4356;49.068;8.658;2023-01-31T14:20:05;100640.13;;;20.63;30.02
8637;BME280;4356;49.068;8.658;2023-01-31T14:22:36;100633.00;;;20.62;29.46
8637;BME280;4356;49.068;8.658;2023-01-31T14:27:42;100646.66;;;20.62;29.65
8637;BME280;4356;49.068;8.658;2023-01-31T14:38:37;100659.84;;;20.65;29.54
8637;BME280;4356;49.068;8.658;2023-01-31T14:47:00;100648.25;;;20.69;29.59
8637;BME280;4356;49.068;8.658;2023-01-31T14:55:11;100654.97;;;20.73;29.61
8637;BME280;4356;49.068;8.658;2023-01-31T14:57:47;100643.81;;;20.75;29.47
8637;BME280;4356;49.068;8.658;2023-01-31T15:02:52;100658.50;;;20.80;29.20
8637;BME280;4356;49.068;8.658;2023-01-31T15:05:23;100653.25;;;20.79;29.11
8637;BME280;4356;49.068;8.658;2023-01-31T15:08:05;100648.88;;;20.78;29.18
8637;BME280;4356;49.068;8.658;2023-01-31T15:10:58;100646.56;;;20.75;29.26
8637;BME280;4356;49.068;8.658;2023-01-31T15:13:37;100644.03;;;20.73;29.33
8637;BME280;4356;49.068;8.658;2023-01-31T15:16:08;100652.69;;;20.70;29.29
8637;BME280;4356;49.068;8.658;2023-01-31T15:18:35;100652.91;;;20.69;29.09
8637;BME280;4356;49.068;8.658;2023-01-31T15:21:04;100661.50;;;20.72;29.54
8637;BME280;4356;49.068;8.658;2023-01-31T15:23:36;100640.28;;;20.68;29.31
8637;BME280;4356;49.068;8.658;2023-01-31T15:26:05;100674.66;;;20.82;29.40